Time;durP1;ratioP1;P1;durP2;ratioP2;P2;SDS_P1;SDS_P2;PMS_P1;PMS_P2;Temp;Humidity;BMP_temperature;BMP_pressure;BME280_temperature;BME280_humidity;BME280_pressure;Samples;Min_cycle;Max_cycle;Signal;HPM_P1;HPM_P2
2023/05/06 00:01:04;;;;;;;8.32;3.60;;;15.90;99.90;;;;;;5013436;28;20057;-74
2023/05/06 00:03:31;;;;;;;6.72;3.00;;;15.80;99.90;;;;;;5023393;28;20049;-74
2023/05/06 00:05:58;;;;;;;5.95;3.08;;;15.80;99.90;;;;;;5026788;28;20127;-74
2023/05/06 00:08:25;;;;;;;8.32;3.17;;;15.80;99.90;;;;;;5017735;28;20129;-74
2023/05/06 00:10:51;;;;;;;8.65;3.45;;;15.80;99.90;;;;;;5019527;28;20104;-74
2023/05/06 00:13:18;;;;;;;4.20;2.85;;;15.80;99.90;;;;;;5015375;28;20093;-75
2023/05/06 00:15:45;;;;;;;3.70;2.83;;;15.80;99.90;;;;;;5012973;28;20523;-74
2023/05/06 00:18:14;;;;;;;3.95;3.22;;;15.70;99.90;;;;;;5023347;28;20046;-75
2023/05/06 00:20:42;;;;;;;5.20;3.38;;;15.70;99.90;;;;;;5025567;28;20053;-74
2023/05/06 00:23:08;;;;;;;6.20;3.42;;;15.70;99.90;;;;;;5021528;28;20136;-75
2023/05/06 00:25:35;;;;;;;6.88;3.40;;;15.70;99.90;;;;;;5005818;28;20125;-74
2023/05/06 00:28:02;;;;;;;9.95;3.60;;;15.70;99.90;;;;;;5018688;28;20077;-74
2023/05/06 00:30:30;;;;;;;3.95;3.28;;;15.70;99.90;;;;;;5019704;28;20429;-75
2023/05/06 00:32:56;;;;;;;9.90;4.60;;;15.70;99.90;;;;;;5022113;28;20055;-75
2023/05/06 00:35:23;;;;;;;6.13;3.08;;;15.70;99.90;;;;;;5022076;28;20133;-74
2023/05/06 00:38:15;;;;;;;4.15;3.13;;;15.70;99.90;;;;;;5019829;28;20494;-74
2023/05/06 00:40:42;;;;;;;4.65;2.75;;;15.70;99.90;;;;;;5018425;28;20089;-75
2023/05/06 00:43:09;;;;;;;10.20;4.40;;;15.70;99.90;;;;;;5015759;28;20049;-75
2023/05/06 00:45:37;;;;;;;8.13;3.33;;;15.60;99.90;;;;;;5013220;28;20058;-74
2023/05/06 00:48:05;;;;;;;5.70;2.72;;;15.60;99.90;;;;;;5021445;28;20057;-75
2023/05/06 00:50:33;;;;;;;4.53;2.50;;;15.60;99.90;;;;;;5026619;28;20049;-74
2023/05/06 00:53:02;;;;;;;6.80;2.75;;;15.50;99.90;;;;;;5018131;28;20057;-75
2023/05/06 00:55:30;;;;;;;9.05;2.90;;;15.50;99.90;;;;;;5018147;28;20111;-74
2023/05/06 00:57:57;;;;;;;7.82;3.38;;;15.40;99.90;;;;;;5012797;28;20125;-75
2023/05/06 01:00:24;;;;;;;10.43;3.00;;;15.40;99.90;;;;;;5011752;28;20053;-74
2023/05/06 01:02:50;;;;;;;8.13;2.92;;;15.40;99.90;;;;;;5020063;28;20387;-74
2023/05/06 01:05:21;;;;;;;3.88;2.63;;;15.40;99.90;;;;;;5024633;28;20049;-74
2023/05/06 01:08:11;;;;;;;6.28;2.65;;;15.40;99.90;;;;;;5013324;28;20409;-74
2023/05/06 01:10:46;;;;;;;6.28;2.83;;;15.40;99.90;;;;;;5019770;28;20049;-74
2023/05/06 01:13:37;;;;;;;16.48;2.95;;;15.40;99.90;;;;;;4996477;28;20140;-74
2023/05/06 01:16:06;;;;;;;5.28;2.75;;;15.30;99.90;;;;;;5014867;28;20080;-74
2023/05/06 01:18:34;;;;;;;5.93;2.45;;;15.40;99.90;;;;;;5023625;28;20049;-74
2023/05/06 01:21:03;;;;;;;9.00;2.38;;;15.40;99.90;;;;;;5024610;28;20046;-74
2023/05/06 01:23:56;;;;;;;6.93;2.80;;;15.30;99.90;;;;;;5016137;28;20054;-73
2023/05/06 01:26:24;;;;;;;10.50;2.78;;;15.40;99.90;;;;;;5015513;28;20523;-74
2023/05/06 01:28:51;;;;;;;3.83;2.63;;;15.30;99.90;;;;;;5010933;28;20061;-74
2023/05/06 01:31:36;;;;;;;8.27;2.95;;;15.30;99.90;;;;;;5012378;28;20059;-74
2023/05/06 01:34:19;;;;;;;5.30;2.95;;;15.40;99.90;;;;;;4996790;28;20050;-74
2023/05/06 01:37:11;;;;;;;7.40;2.72;;;15.30;99.90;;;;;;5024864;28;20133;-74
2023/05/06 01:39:40;;;;;;;6.35;3.10;;;15.30;99.90;;;;;;5022841;28;20053;-74
2023/05/06 01:42:08;;;;;;;11.32;2.95;;;15.30;99.90;;;;;;5018443;28;20050;-74
2023/05/06 01:44:37;;;;;;;12.93;2.83;;;15.20;99.90;;;;;;5016114;28;20072;-73
2023/05/06 01:47:06;;;;;;;5.32;3.28;;;15.20;99.90;;;;;;5023099;28;20055;-74
2023/05/06 01:49:33;;;;;;;6.18;3.65;;;15.20;99.90;;;;;;5025691;28;20053;-74
2023/05/06 01:52:01;;;;;;;7.53;3.20;;;15.20;99.90;;;;;;5026465;28;20128;-75
2023/05/06 01:54:28;;;;;;;6.75;2.75;;;15.20;99.90;;;;;;5022222;28;20112;-74
2023/05/06 01:56:54;;;;;;;5.10;2.58;;;15.20;99.90;;;;;;5021051;28;20176;-75
2023/05/06 01:59:21;;;;;;;6.55;3.00;;;15.10;99.90;;;;;;5016450;28;20137;-74
2023/05/06 02:01:48;;;;;;;9.20;3.03;;;15.10;99.90;;;;;;5021785;28;20149;-75
2023/05/06 02:04:15;;;;;;;6.80;2.72;;;15.10;99.90;;;;;;5028844;28;20053;-75
2023/05/06 02:06:41;;;;;;;8.48;3.08;;;15.00;99.90;;;;;;5024069;28;20076;-74
2023/05/06 02:09:08;;;;;;;7.72;2.90;;;15.00;99.90;;;;;;5022567;28;20053;-75
2023/05/06 02:11:35;;;;;;;4.63;2.90;;;15.00;99.90;;;;;;5017757;28;20054;-75
2023/05/06 02:14:01;;;;;;;5.03;3.10;;;14.90;99.90;;;;;;5013590;28;20076;-75
2023/05/06 02:16:28;;;;;;;6.88;2.97;;;14.90;99.90;;;;;;5020238;28;20489;-75
2023/05/06 02:18:55;;;;;;;9.18;3.03;;;14.90;99.90;;;;;;5023519;28;20516;-74
2023/05/06 02:21:22;;;;;;;11.57;2.88;;;14.90;99.90;;;;;;5026134;28;20041;-74
2023/05/06 02:23:49;;;;;;;6.05;3.42;;;14.90;99.90;;;;;;5018708;28;20045;-74
2023/05/06 02:26:16;;;;;;;5.22;2.55;;;14.90;99.90;;;;;;5018468;28;20081;-75
2023/05/06 02:28:43;;;;;;;3.38;2.67;;;14.90;99.90;;;;;;5016116;28;20493;-74
2023/05/06 02:31:13;;;;;;;7.68;2.75;;;14.80;99.90;;;;;;5019510;28;20053;-74
2023/05/06 02:33:40;;;;;;;4.55;2.28;;;14.80;99.90;;;;;;5025358;28;20057;-75
2023/05/06 02:36:07;;;;;;;5.18;2.35;;;14.80;99.90;;;;;;5027863;28;20494;-75
2023/05/06 02:38:34;;;;;;;7.70;2.25;;;14.80;99.90;;;;;;5018932;28;20049;-75
2023/05/06 02:41:00;;;;;;;8.93;2.47;;;14.80;99.90;;;;;;5020729;28;20049;-74
2023/05/06 02:43:27;;;;;;;4.82;2.65;;;14.70;99.90;;;;;;5019232;28;20050;-74
2023/05/06 02:45:54;;;;;;;5.95;2.53;;;14.80;99.90;;;;;;5016585;28;20148;-75
2023/05/06 02:48:21;;;;;;;9.85;2.78;;;14.80;99.90;;;;;;5027221;28;20506;-74
2023/05/06 02:50:48;;;;;;;7.22;2.65;;;14.80;99.90;;;;;;5025744;28;20452;-74
2023/05/06 02:53:14;;;;;;;8.60;2.92;;;14.80;99.90;;;;;;5021568;28;20068;-74
2023/05/06 02:55:41;;;;;;;3.75;2.58;;;14.80;99.90;;;;;;5021358;28;20045;-74
2023/05/06 02:58:08;;;;;;;11.25;3.65;;;14.80;99.90;;;;;;5017050;28;20049;-74
2023/05/06 03:00:35;;;;;;;12.80;3.08;;;14.80;99.90;;;;;;5018354;28;20059;-75
2023/05/06 03:03:02;;;;;;;11.93;2.92;;;14.80;99.90;;;;;;5026252;28;20512;-75
2023/05/06 03:05:29;;;;;;;6.18;2.67;;;14.80;99.90;;;;;;5025870;28;20041;-75
2023/05/06 03:07:55;;;;;;;5.22;2.95;;;14.90;99.90;;;;;;5022482;28;20080;-75
2023/05/06 03:10:22;;;;;;;5.70;2.92;;;14.90;99.90;;;;;;5018197;28;20125;-75
2023/05/06 03:12:49;;;;;;;4.45;2.97;;;14.90;99.90;;;;;;5016502;28;20053;-75
2023/05/06 03:15:16;;;;;;;11.43;3.33;;;14.90;99.90;;;;;;5018258;28;20057;-74
2023/05/06 03:17:43;;;;;;;5.95;3.05;;;15.00;99.90;;;;;;5019536;28;20045;-75
2023/05/06 03:20:09;;;;;;;4.38;2.90;;;15.00;99.90;;;;;;5026603;28;20112;-75
2023/05/06 03:22:36;;;;;;;5.40;3.03;;;15.00;99.90;;;;;;5019850;28;20137;-75
2023/05/06 03:25:04;;;;;;;3.08;2.20;;;15.00;99.90;;;;;;5019493;28;20099;-74
2023/05/06 03:27:30;;;;;;;6.32;2.45;;;15.00;99.90;;;;;;5016848;28;20054;-74
2023/05/06 03:29:57;;;;;;;4.25;2.40;;;15.00;99.90;;;;;;5014232;28;20068;-74
2023/05/06 03:32:24;;;;;;;3.92;2.35;;;15.00;99.90;;;;;;5024173;28;20132;-75
2023/05/06 03:34:50;;;;;;;10.75;2.78;;;15.10;99.90;;;;;;5026816;28;20041;-75
2023/05/06 03:37:17;;;;;;;5.88;2.50;;;15.10;99.90;;;;;;5020111;28;20055;-74
2023/05/06 03:39:44;;;;;;;3.70;2.85;;;15.10;99.90;;;;;;5020485;28;20042;-75
2023/05/06 03:42:10;;;;;;;5.90;2.35;;;15.10;99.90;;;;;;5017651;28;20042;-75
2023/05/06 03:44:37;;;;;;;7.10;2.55;;;15.10;99.90;;;;;;5013117;28;20042;-75
2023/05/06 03:47:04;;;;;;;4.07;2.85;;;15.10;99.90;;;;;;5026510;28;20041;-75
2023/05/06 03:49:30;;;;;;;6.72;2.35;;;15.10;99.90;;;;;;5024438;28;20045;-75
2023/05/06 03:51:57;;;;;;;10.85;2.63;;;15.10;99.90;;;;;;5030389;28;20062;-75
2023/05/06 03:54:24;;;;;;;7.05;2.72;;;15.10;99.90;;;;;;5020408;28;20045;-75
2023/05/06 03:56:51;;;;;;;3.58;2.78;;;15.10;99.90;;;;;;5017579;28;20048;-74
2023/05/06 03:59:17;;;;;;;6.63;2.88;;;15.10;99.90;;;;;;5013656;28;20502;-75
2023/05/06 04:01:44;;;;;;;6.55;2.67;;;15.10;99.90;;;;;;5022544;28;20052;-75
2023/05/06 04:04:11;;;;;;;4.10;2.35;;;15.10;99.90;;;;;;5026923;28;20448;-74
2023/05/06 04:06:38;;;;;;;10.45;2.78;;;15.10;99.90;;;;;;5021450;28;20042;-75
2023/05/06 04:09:05;;;;;;;3.88;2.65;;;15.10;99.90;;;;;;5018208;28;20041;-75
2023/05/06 04:11:32;;;;;;;8.40;2.97;;;15.10;99.90;;;;;;5017397;28;20054;-75
2023/05/06 04:13:58;;;;;;;5.93;3.45;;;15.10;99.90;;;;;;5014610;28;20045;-74
2023/05/06 04:16:25;;;;;;;3.17;2.78;;;15.10;99.90;;;;;;5022880;28;20512;-74
2023/05/06 04:18:52;;;;;;;3.70;2.60;;;15.00;99.90;;;;;;5022130;28;20045;-75
2023/05/06 04:21:18;;;;;;;9.45;2.97;;;15.00;99.90;;;;;;5021823;28;20047;-75
2023/05/06 04:23:45;;;;;;;8.98;2.90;;;14.90;99.90;;;;;;5018674;28;20055;-74
2023/05/06 04:26:12;;;;;;;6.97;2.67;;;14.90;99.90;;;;;;5013844;28;20049;-74
2023/05/06 04:28:38;;;;;;;2.95;2.45;;;14.90;99.90;;;;;;5013125;28;20045;-75
2023/05/06 04:31:07;;;;;;;6.07;2.90;;;14.80;99.90;;;;;;5035702;28;20088;-74
2023/05/06 04:33:34;;;;;;;3.33;3.03;;;14.80;99.90;;;;;;5025279;28;20041;-75
2023/05/06 04:36:02;;;;;;;5.80;3.35;;;14.80;99.90;;;;;;5021114;28;20052;-74
2023/05/06 04:38:30;;;;;;;5.30;3.30;;;14.80;99.90;;;;;;5020318;28;20050;-75
2023/05/06 04:40:58;;;;;;;3.25;2.58;;;14.80;99.90;;;;;;5015597;28;20128;-74
2023/05/06 04:43:27;;;;;;;7.40;2.83;;;14.70;99.90;;;;;;5014447;28;20494;-75
2023/05/06 04:45:54;;;;;;;4.15;2.97;;;14.70;99.90;;;;;;5020407;28;20037;-75
2023/05/06 04:48:21;;;;;;;4.80;2.97;;;14.80;99.90;;;;;;5047627;23;20063;-75
2023/05/06 04:50:49;;;;;;;5.97;3.22;;;14.80;99.90;;;;;;5040383;28;20080;-75
2023/05/06 04:53:16;;;;;;;6.25;3.38;;;14.90;99.90;;;;;;5038939;28;20073;-75
2023/05/06 04:55:43;;;;;;;5.00;2.40;;;15.00;99.90;;;;;;5036585;28;20060;-75
2023/05/06 04:58:10;;;;;;;4.28;2.83;;;15.00;99.90;;;;;;5027669;28;20056;-75
2023/05/06 05:00:36;;;;;;;8.63;3.53;;;15.10;99.90;;;;;;5001371;28;20137;-76
2023/05/06 05:03:03;;;;;;;10.75;2.97;;;15.20;99.90;;;;;;5010125;28;20038;-75
2023/05/06 05:05:32;;;;;;;3.92;2.33;;;15.20;99.90;;;;;;5004132;28;20049;-76
2023/05/06 05:07:59;;;;;;;6.30;2.30;;;15.30;99.90;;;;;;5003908;28;20042;-75
2023/05/06 05:10:25;;;;;;;8.98;2.60;;;15.40;99.90;;;;;;5002717;28;20050;-75
2023/05/06 05:12:52;;;;;;;7.00;2.40;;;15.50;99.90;;;;;;4998918;28;20065;-76
2023/05/06 05:15:20;;;;;;;8.40;2.25;;;15.50;99.90;;;;;;5007230;28;20052;-75
2023/05/06 05:17:47;;;;;;;3.78;2.15;;;15.60;99.90;;;;;;5003538;28;20045;-75
2023/05/06 05:20:14;;;;;;;9.23;1.88;;;15.70;99.90;;;;;;5003288;28;20038;-75
2023/05/06 05:22:40;;;;;;;4.38;2.30;;;15.80;99.90;;;;;;5009108;28;20049;-75
2023/05/06 05:25:07;;;;;;;2.60;2.08;;;15.80;99.90;;;;;;5002898;28;20042;-75
2023/05/06 05:27:35;;;;;;;8.25;2.00;;;15.90;99.90;;;;;;4995646;28;20074;-75
2023/05/06 05:30:01;;;;;;;6.00;2.33;;;15.90;99.90;;;;;;5004364;28;20041;-74
2023/05/06 05:32:29;;;;;;;5.30;2.97;;;15.90;99.90;;;;;;5004822;28;20045;-75
2023/05/06 05:34:56;;;;;;;6.93;3.60;;;16.00;99.90;;;;;;5007095;28;20111;-75
2023/05/06 05:37:22;;;;;;;6.93;2.40;;;16.00;99.90;;;;;;5004437;28;20734;-75
2023/05/06 05:39:49;;;;;;;6.72;2.83;;;16.10;99.90;;;;;;5004074;28;20038;-75
2023/05/06 05:42:16;;;;;;;4.50;2.45;;;16.10;99.90;;;;;;4998412;28;20482;-75
2023/05/06 05:44:42;;;;;;;4.28;2.42;;;16.10;99.90;;;;;;4997411;28;20035;-75
2023/05/06 05:47:09;;;;;;;7.60;2.40;;;16.10;99.90;;;;;;5007568;28;20045;-76
2023/05/06 05:49:36;;;;;;;3.55;2.50;;;16.20;99.90;;;;;;5000941;28;20041;-75
2023/05/06 05:52:03;;;;;;;6.82;2.67;;;16.20;99.90;;;;;;5009452;28;20041;-75
2023/05/06 05:54:29;;;;;;;6.70;3.00;;;16.30;99.90;;;;;;5003470;28;20046;-75
2023/05/06 05:56:56;;;;;;;5.00;2.95;;;16.30;99.90;;;;;;5008033;28;20049;-75
2023/05/06 05:59:24;;;;;;;3.40;2.70;;;16.30;99.90;;;;;;4995973;28;20125;-75
2023/05/06 06:01:51;;;;;;;10.20;4.68;;;16.40;99.90;;;;;;5005397;28;20046;-75
2023/05/06 06:04:17;;;;;;;6.82;3.75;;;16.50;99.90;;;;;;5004971;28;20057;-75
2023/05/06 06:06:45;;;;;;;7.55;3.88;;;16.50;99.90;;;;;;5009250;28;20112;-75
2023/05/06 06:09:12;;;;;;;7.55;4.90;;;16.50;99.90;;;;;;5003736;28;20053;-75
2023/05/06 06:11:38;;;;;;;8.68;4.93;;;16.50;99.90;;;;;;4998336;28;20497;-75
2023/05/06 06:14:05;;;;;;;9.80;5.68;;;16.60;99.90;;;;;;5009123;28;20041;-75
2023/05/06 06:16:32;;;;;;;12.00;7.68;;;16.70;99.90;;;;;;4998152;28;20536;-75
2023/05/06 06:18:59;;;;;;;13.95;10.18;;;16.70;99.90;;;;;;5000082;28;20080;-75
2023/05/06 06:21:26;;;;;;;18.08;10.30;;;16.80;99.90;;;;;;5004679;28;20606;-75
2023/05/06 06:23:53;;;;;;;16.77;11.88;;;16.90;99.90;;;;;;5008668;28;20046;-75
2023/05/06 06:26:20;;;;;;;14.80;10.43;;;16.90;99.90;;;;;;5001693;28;20041;-75
2023/05/06 06:28:46;;;;;;;16.13;10.70;;;17.00;99.90;;;;;;5003155;28;20072;-75
2023/05/06 06:31:13;;;;;;;13.30;10.25;;;17.00;99.90;;;;;;5003039;28;20041;-76
2023/05/06 06:33:40;;;;;;;13.15;10.02;;;17.10;99.90;;;;;;5008508;28;20165;-76
2023/05/06 06:36:07;;;;;;;14.38;10.63;;;17.10;99.90;;;;;;5006376;28;20046;-75
2023/05/06 06:38:34;;;;;;;14.27;10.73;;;17.20;99.90;;;;;;5006507;28;20038;-76
2023/05/06 06:41:01;;;;;;;16.58;10.70;;;17.20;99.90;;;;;;4998963;28;20070;-76
2023/05/06 06:43:27;;;;;;;16.17;11.13;;;17.30;99.90;;;;;;5008746;28;20042;-76
2023/05/06 06:45:55;;;;;;;16.30;11.88;;;17.40;99.90;;;;;;5003935;28;20054;-76
2023/05/06 06:48:22;;;;;;;15.75;11.35;;;17.40;99.90;;;;;;5001079;28;20042;-76
2023/05/06 06:50:49;;;;;;;13.43;10.07;;;17.40;99.90;;;;;;5006878;28;20409;-75
2023/05/06 06:53:16;;;;;;;15.63;10.43;;;17.50;99.90;;;;;;5007601;28;20046;-76
2023/05/06 06:55:43;;;;;;;17.02;10.90;;;17.50;99.90;;;;;;5005524;28;20038;-76
2023/05/06 06:58:10;;;;;;;15.50;10.80;;;17.60;99.90;;;;;;5007044;28;20042;-76
2023/05/06 07:00:37;;;;;;;16.23;11.98;;;17.60;99.90;;;;;;5002839;28;20612;-75
2023/05/06 07:03:03;;;;;;;16.75;11.00;;;17.70;99.90;;;;;;5003767;28;20042;-75
2023/05/06 07:05:30;;;;;;;15.38;11.57;;;17.70;99.90;;;;;;5006349;28;20434;-76
2023/05/06 07:07:57;;;;;;;19.25;11.35;;;17.80;99.90;;;;;;5004130;28;20045;-76
2023/05/06 07:10:23;;;;;;;21.95;13.23;;;17.80;99.90;;;;;;5007918;28;20049;-76
2023/05/06 07:12:50;;;;;;;22.45;13.13;;;17.80;99.90;;;;;;5003550;28;20048;-76
2023/05/06 07:15:17;;;;;;;21.63;16.10;;;17.80;99.90;;;;;;5003817;28;20532;-75
2023/05/06 07:17:44;;;;;;;20.48;15.38;;;17.70;99.90;;;;;;5003601;28;20053;-75
2023/05/06 07:20:11;;;;;;;19.08;15.23;;;17.60;99.90;;;;;;5005178;28;20064;-76
2023/05/06 07:22:40;;;;;;;25.98;19.08;;;17.60;99.90;;;;;;5002639;28;20046;-76
2023/05/06 07:25:07;;;;;;;23.30;15.70;;;17.60;99.90;;;;;;5007674;28;20076;-76
2023/05/06 07:27:34;;;;;;;22.58;15.70;;;17.70;99.90;;;;;;5006510;28;20453;-76
2023/05/06 07:30:01;;;;;;;21.58;14.75;;;17.80;99.90;;;;;;5007217;28;20052;-76
2023/05/06 07:32:28;;;;;;;21.98;15.82;;;17.80;99.90;;;;;;5004701;28;20515;-75
2023/05/06 07:34:55;;;;;;;24.20;16.60;;;17.90;99.90;;;;;;5004715;28;20417;-75
2023/05/06 07:37:21;;;;;;;19.90;15.10;;;17.90;99.90;;;;;;5004458;28;20046;-76
2023/05/06 07:39:48;;;;;;;20.67;13.90;;;17.90;99.90;;;;;;5004061;28;20038;-76
2023/05/06 07:42:14;;;;;;;24.73;14.68;;;17.80;99.90;;;;;;5005510;28;20038;-75
2023/05/06 07:44:41;;;;;;;23.52;15.35;;;17.70;99.90;;;;;;4999675;28;20513;-76
2023/05/06 07:47:08;;;;;;;23.42;14.43;;;17.60;99.90;;;;;;5004865;28;20066;-75
2023/05/06 07:49:35;;;;;;;23.92;15.40;;;17.60;99.90;;;;;;5001406;28;20053;-76
2023/05/06 07:52:02;;;;;;;24.33;15.73;;;17.50;99.90;;;;;;5001288;28;20049;-76
2023/05/06 07:54:30;;;;;;;17.50;13.10;;;17.60;99.90;;;;;;5007215;28;20045;-75
2023/05/06 07:56:57;;;;;;;19.80;14.10;;;17.50;99.90;;;;;;5002493;28;20056;-76
2023/05/06 07:59:24;;;;;;;18.17;13.27;;;17.40;99.90;;;;;;4997856;28;20038;-76
2023/05/06 08:01:51;;;;;;;21.88;14.55;;;17.30;99.90;;;;;;5002065;28;20042;-75
2023/05/06 08:04:17;;;;;;;17.00;12.73;;;17.20;99.90;;;;;;5001529;28;20042;-76
2023/05/06 08:06:44;;;;;;;14.43;11.38;;;17.20;99.90;;;;;;5001349;28;20050;-75
2023/05/06 08:09:11;;;;;;;17.90;12.82;;;17.30;99.90;;;;;;5002610;28;20050;-76
2023/05/06 08:11:49;;;;;;;16.05;11.70;;;17.30;99.90;;;;;;5000201;28;20505;-80
2023/05/06 08:14:16;;;;;;;15.32;11.43;;;17.50;99.90;;;;;;4999035;28;20053;-76
2023/05/06 08:16:43;;;;;;;14.25;11.68;;;17.60;99.90;;;;;;5001910;28;20438;-76
2023/05/06 08:19:09;;;;;;;15.27;11.15;;;17.70;99.90;;;;;;5007912;28;20042;-76
2023/05/06 08:21:36;;;;;;;14.63;11.43;;;17.80;99.90;;;;;;5000860;28;20037;-76
2023/05/06 08:24:03;;;;;;;14.52;11.15;;;17.70;99.90;;;;;;5006408;28;20676;-76
2023/05/06 08:26:29;;;;;;;18.30;11.00;;;17.90;99.90;;;;;;5002611;28;20058;-76
2023/05/06 08:28:57;;;;;;;12.43;11.10;;;18.00;99.90;;;;;;5003260;28;20050;-76
2023/05/06 08:31:24;;;;;;;13.02;10.60;;;18.10;99.90;;;;;;5006173;28;20041;-76
2023/05/06 08:33:51;;;;;;;14.50;10.55;;;18.20;99.90;;;;;;5005058;28;20052;-76
2023/05/06 08:36:21;;;;;;;12.27;10.18;;;18.30;99.90;;;;;;5008313;28;20049;-76
2023/05/06 08:38:49;;;;;;;11.15;9.77;;;18.40;99.90;;;;;;5005840;28;20058;-76
2023/05/06 08:41:18;;;;;;;13.07;8.95;;;18.40;99.90;;;;;;5007503;28;20049;-76
2023/05/06 08:43:46;;;;;;;10.05;9.05;;;18.40;99.90;;;;;;4998750;28;20042;-76
2023/05/06 08:46:13;;;;;;;13.23;9.40;;;18.40;99.90;;;;;;5009938;28;20045;-78
2023/05/06 08:48:40;;;;;;;11.20;9.05;;;18.40;99.90;;;;;;5005373;28;20042;-76
2023/05/06 08:51:08;;;;;;;11.18;9.10;;;18.40;99.90;;;;;;5009174;28;20050;-76
2023/05/06 08:53:35;;;;;;;10.32;9.10;;;18.50;99.90;;;;;;5006538;28;20057;-75
2023/05/06 08:56:05;;;;;;;10.10;8.98;;;18.50;99.90;;;;;;4999588;28;20175;-76
2023/05/06 08:58:34;;;;;;;12.82;9.23;;;18.50;99.90;;;;;;5008831;28;20053;-76
2023/05/06 09:01:02;;;;;;;14.05;8.85;;;18.50;99.90;;;;;;5003228;28;20047;-76
2023/05/06 09:03:29;;;;;;;11.93;8.27;;;18.50;99.90;;;;;;5001909;28;20129;-76
2023/05/06 09:05:57;;;;;;;11.57;8.05;;;18.50;99.90;;;;;;5004911;28;20060;-76
2023/05/06 09:08:24;;;;;;;9.40;7.45;;;18.50;99.90;;;;;;5003619;28;20046;-75
2023/05/06 09:10:50;;;;;;;10.05;8.40;;;18.50;99.90;;;;;;5008980;28;20049;-75
2023/05/06 09:13:18;;;;;;;17.02;7.68;;;18.40;99.90;;;;;;5001783;28;20049;-76
2023/05/06 09:15:47;;;;;;;8.98;6.68;;;18.40;99.90;;;;;;5000866;28;20052;-76
2023/05/06 09:18:15;;;;;;;8.75;7.15;;;18.40;99.90;;;;;;4998972;28;20050;-75
2023/05/06 09:20:47;;;;;;;6.82;6.13;;;18.40;99.90;;;;;;5009400;28;20133;-76
2023/05/06 09:23:16;;;;;;;6.65;5.88;;;18.50;99.90;;;;;;5005157;28;20518;-75
2023/05/06 09:25:45;;;;;;;8.93;6.53;;;18.60;99.90;;;;;;4996330;28;20046;-76
2023/05/06 09:28:12;;;;;;;6.80;6.07;;;18.60;99.90;;;;;;5009600;28;20053;-75
2023/05/06 09:30:40;;;;;;;8.25;5.45;;;18.70;99.90;;;;;;5001170;28;20489;-76
2023/05/06 09:33:08;;;;;;;7.03;5.07;;;18.80;99.90;;;;;;5010103;28;20053;-76
2023/05/06 09:35:37;;;;;;;8.95;5.10;;;18.90;99.90;;;;;;5002362;28;20057;-76
2023/05/06 09:38:04;;;;;;;8.88;4.70;;;18.90;99.90;;;;;;5003888;28;20050;-75
2023/05/06 09:40:34;;;;;;;5.53;4.40;;;19.00;99.90;;;;;;5003739;28;20427;-76
2023/05/06 09:43:02;;;;;;;7.50;5.25;;;18.90;99.90;;;;;;4994020;28;20457;-75
2023/05/06 09:45:29;;;;;;;5.30;4.43;;;18.90;99.90;;;;;;5007599;28;20082;-76
2023/05/06 09:47:57;;;;;;;6.13;5.35;;;18.90;99.90;;;;;;4998731;28;20081;-75
2023/05/06 09:50:25;;;;;;;5.90;5.28;;;18.90;99.90;;;;;;5003609;28;20078;-76
2023/05/06 09:52:53;;;;;;;7.90;5.68;;;19.00;99.90;;;;;;5003188;28;20129;-76
2023/05/06 09:55:22;;;;;;;4.85;4.30;;;19.00;99.90;;;;;;5005958;28;20062;-77
2023/05/06 09:57:49;;;;;;;8.40;4.32;;;19.10;99.90;;;;;;5003041;28;20046;-76
2023/05/06 10:00:16;;;;;;;6.85;4.07;;;19.10;99.90;;;;;;5004546;28;20396;-77
2023/05/06 10:02:44;;;;;;;9.90;4.10;;;19.20;99.90;;;;;;5005440;28;20050;-77
2023/05/06 10:05:11;;;;;;;5.70;4.32;;;19.30;99.90;;;;;;5009444;28;20046;-77
2023/05/06 10:07:41;;;;;;;10.57;4.43;;;19.30;99.90;;;;;;5007708;28;20046;-76
2023/05/06 10:10:10;;;;;;;7.70;4.03;;;19.40;99.90;;;;;;5002931;28;20069;-76
2023/05/06 10:12:37;;;;;;;8.68;5.38;;;19.60;99.90;;;;;;5003454;28;20045;-77
2023/05/06 10:15:04;;;;;;;7.57;4.55;;;19.70;99.90;;;;;;5012961;28;20081;-78
2023/05/06 10:17:32;;;;;;;8.43;5.05;;;19.90;99.90;;;;;;5009190;28;20464;-77
2023/05/06 10:20:01;;;;;;;7.30;4.97;;;20.00;99.90;;;;;;5010286;28;20457;-77
2023/05/06 10:22:55;;;;;;;13.45;4.60;;;20.20;99.90;;;;;;5007451;28;20058;-77
2023/05/06 10:25:32;;;;;;;5.38;4.47;;;20.30;99.90;;;;;;5002198;28;20104;-77
2023/05/06 10:28:00;;;;;;;5.65;4.10;;;20.30;99.90;;;;;;5007172;28;20049;-77
2023/05/06 10:30:30;;;;;;;6.00;4.35;;;20.20;99.90;;;;;;5012893;28;20448;-79
2023/05/06 10:33:02;;;;;;;6.05;4.47;;;20.30;99.90;;;;;;4997822;28;20057;-77
2023/05/06 10:35:41;;;;;;;6.97;4.85;;;20.30;99.90;;;;;;5001652;28;20042;-77
2023/05/06 10:38:13;;;;;;;5.55;4.13;;;20.30;99.90;;;;;;5001642;28;20168;-77
2023/05/06 10:40:41;;;;;;;7.32;3.85;;;20.30;99.90;;;;;;5000354;28;20041;-77
2023/05/06 10:43:30;;;;;;;5.03;3.70;;;20.30;99.90;;;;;;5009720;28;20143;-77
2023/05/06 10:46:08;;;;;;;5.93;4.30;;;20.30;99.90;;;;;;5007608;28;20060;-78
2023/05/06 10:48:36;;;;;;;8.77;3.70;;;20.30;99.90;;;;;;5004427;28;20065;-77
2023/05/06 10:51:15;;;;;;;6.05;3.60;;;20.30;99.90;;;;;;5003825;28;20054;-77
2023/05/06 10:54:28;;;;;;;6.60;4.00;;;20.40;99.90;;;;;;5003443;28;20513;-77
2023/05/06 10:56:57;;;;;;;5.78;3.47;;;20.50;99.90;;;;;;4990927;28;20054;-75
2023/05/06 10:59:25;;;;;;;5.85;4.32;;;20.50;99.90;;;;;;5003156;28;20056;-76
2023/05/06 11:02:07;;;;;;;5.55;3.70;;;20.50;99.90;;;;;;5005441;28;20191;-75
2023/05/06 11:04:36;;;;;;;6.07;4.22;;;20.40;99.90;;;;;;5002486;28;20048;-76
2023/05/06 11:07:13;;;;;;;5.47;3.80;;;20.40;99.90;;;;;;5006321;28;20137;-75
2023/05/06 11:09:58;;;;;;;4.90;3.47;;;20.30;99.90;;;;;;4997823;28;20038;-76
2023/05/06 11:12:48;;;;;;;6.35;3.40;;;20.30;99.90;;;;;;5000727;28;20054;-76
2023/05/06 11:15:39;;;;;;;5.05;3.85;;;20.40;99.90;;;;;;5000469;28;20049;-76
2023/05/06 11:18:24;;;;;;;6.88;3.50;;;20.40;99.90;;;;;;4994848;28;20077;-76
2023/05/06 11:21:11;;;;;;;5.35;4.07;;;20.30;99.90;;;;;;5006238;28;20049;-75
2023/05/06 11:23:41;;;;;;;4.65;3.50;;;20.30;99.90;;;;;;5014689;28;20042;-75
2023/05/06 11:26:09;;;;;;;5.53;3.83;;;20.30;99.90;;;;;;5000273;28;20046;-75
2023/05/06 11:28:37;;;;;;;4.85;3.50;;;20.30;99.90;;;;;;5001278;28;20506;-75
2023/05/06 11:31:04;;;;;;;8.20;4.65;;;20.30;99.90;;;;;;5005404;28;20387;-75
2023/05/06 11:33:34;;;;;;;5.18;3.15;;;20.40;99.90;;;;;;5005011;28;20056;-75
2023/05/06 11:36:03;;;;;;;5.00;3.45;;;20.40;99.90;;;;;;5006653;28;20074;-76
2023/05/06 11:38:48;;;;;;;3.78;2.80;;;20.40;99.90;;;;;;5001884;28;20061;-76
2023/05/06 11:41:15;;;;;;;10.10;2.30;;;20.40;99.90;;;;;;5009430;28;20409;-75
2023/05/06 11:43:49;;;;;;;4.60;2.72;;;20.40;99.90;;;;;;5003894;28;20130;-76
2023/05/06 11:46:18;;;;;;;4.10;2.80;;;20.50;99.90;;;;;;5000347;28;20080;-76
2023/05/06 11:48:45;;;;;;;4.05;3.15;;;20.50;99.90;;;;;;5008142;28;20439;-75
2023/05/06 11:51:12;;;;;;;3.78;2.60;;;20.50;99.90;;;;;;5003859;28;20054;-76
2023/05/06 11:53:39;;;;;;;4.07;1.85;;;20.50;99.90;;;;;;4996410;28;20106;-75
2023/05/06 11:56:06;;;;;;;2.58;1.73;;;20.50;99.90;;;;;;4998308;28;20078;-75
2023/05/06 11:58:33;;;;;;;4.60;2.05;;;20.60;99.90;;;;;;5003719;28;20053;-75
2023/05/06 12:01:02;;;;;;;4.95;3.05;;;20.60;99.90;;;;;;5010506;28;20050;-75
2023/05/06 12:03:30;;;;;;;4.13;2.50;;;20.60;99.90;;;;;;5003607;28;20053;-76
2023/05/06 12:05:58;;;;;;;5.45;2.50;;;20.70;99.90;;;;;;5006423;28;20096;-75
2023/05/06 12:08:30;;;;;;;4.63;2.10;;;20.70;99.90;;;;;;5003479;28;20064;-75
2023/05/06 12:11:06;;;;;;;2.67;2.15;;;20.70;99.90;;;;;;5026126;23;20085;-75
2023/05/06 12:13:35;;;;;;;4.75;2.08;;;20.70;99.90;;;;;;5028714;28;20128;-76
2023/05/06 12:16:04;;;;;;;2.72;2.10;;;20.70;99.90;;;;;;5033591;28;20037;-76
2023/05/06 12:18:31;;;;;;;3.20;1.90;;;20.70;99.90;;;;;;5031133;28;20053;-76
2023/05/06 12:21:04;;;;;;;3.13;2.10;;;20.70;99.90;;;;;;5032947;28;20046;-76
2023/05/06 12:23:31;;;;;;;3.33;2.05;;;20.70;99.90;;;;;;5015249;28;20050;-77
2023/05/06 12:26:04;;;;;;;3.45;1.88;;;20.80;99.90;;;;;;5015847;28;20142;-76
2023/05/06 12:28:34;;;;;;;2.78;1.50;;;20.80;99.90;;;;;;5023769;28;20100;-76
2023/05/06 12:31:20;;;;;;;;;;;20.80;99.90;;;;;;5021779;28;20136;-76
2023/05/06 12:33:48;;;;;;;4.00;1.10;;;20.80;99.90;;;;;;5020019;28;19921;-76
2023/05/06 12:36:16;;;;;;;2.53;1.20;;;20.90;99.90;;;;;;5016339;28;20058;-76
2023/05/06 12:38:55;;;;;;;3.65;1.60;;;20.90;99.90;;;;;;5012314;28;20057;-75
2023/05/06 12:41:23;;;;;;;3.17;1.58;;;21.00;99.90;;;;;;5018108;28;20045;-76
2023/05/06 12:43:53;;;;;;;2.50;1.80;;;21.00;99.90;;;;;;5001341;28;20046;-76
2023/05/06 12:46:20;;;;;;;2.28;1.67;;;21.10;99.90;;;;;;5017480;28;20483;-76
2023/05/06 12:48:59;;;;;;;2.88;1.50;;;21.10;99.90;;;;;;5019639;28;20107;-76
2023/05/06 12:51:27;;;;;;;2.40;1.40;;;21.10;99.90;;;;;;5013456;28;20104;-76